Flight Track Log - Related Links

Times and Time Zones

All times are in EDT time to prevent confusion due to time zone crossing. See the GJS3666 flight status page for this flight to view local times or setup timezone preferences in your user account.


Time Position Orientation Groundspeed Altitude Reporting Facility
EDT Latitude Longitude Course Direction KTS MPH feet Rate Location/Type
Sat 04:10:32 PM 39.8348 -104.5173 254° West  Level FlightAware Approximate
Sat 04:11:02 PM 39.8167 -104.6000 70° East 234 269 8,500  Level Denver TRACON
Sat 04:15:08 PM 39.9517 -104.1186 76° East 391 450 17,200 2,162 Climbing Denver Center
Sat 04:16:10 PM 39.9781 -103.9817 75° East 398 458 19,600 2,049 Climbing Denver Center
Sat 04:17:11 PM 40.0086 -103.8283 74° East 404 465 21,400 1,463 Climbing Denver Center
Sat 04:18:13 PM 40.0406 -103.6847 74° East 423 487 22,600 1,065 Climbing Denver Center
Sat 04:19:15 PM 40.0764 -103.5253 73° East 452 520 23,600 968 Climbing Denver Center
Sat 04:20:17 PM 40.1150 -103.3608 74° East 467 537 24,600 968 Climbing Denver Center
Sat 04:21:19 PM 40.1528 -103.1928 80° East 475 547 25,600 1,065 Climbing Denver Center
Sat 04:22:21 PM 40.1808 -102.9886 79° East 484 557 26,800 1,065 Climbing Denver Center
Sat 04:23:23 PM 40.2067 -102.8133 80° East 486 559 27,800 919 Climbing Denver Center
Sat 04:24:25 PM 40.2289 -102.6533 80° East 488 562 28,700 1,024 Climbing Denver Center
Sat 04:25:26 PM 40.2553 -102.4572 80° East 490 564 29,900 1,024 Climbing Denver Center
Sat 04:26:28 PM 40.2786 -102.2897 80° East 490 564 30,800 1,016 Climbing Denver Center
Sat 04:27:30 PM 40.3039 -102.0961 80° East 485 558 32,000 1,016 Climbing Denver Center
Sat 04:28:32 PM 40.3264 -101.9311 80° East 483 556 32,900 968 Climbing Denver Center
Sat 04:29:34 PM 40.3517 -101.7392 81° East 480 552 34,000 1,016 Climbing Denver Center
Sat 04:30:36 PM 40.3725 -101.5747 80° East 479 551 35,000 1,016 Climbing Denver Center
Sat 04:31:38 PM 40.3969 -101.3853 81° East 475 547 36,100 774 Climbing Denver Center
Sat 04:32:40 PM 40.4167 -101.2225 81° East 474 545 36,600 537 Climbing Denver Center
Sat 04:33:41 PM 40.4403 -101.0297 78° East 480 552 37,200 537 Climbing Denver Center
Sat 04:34:43 PM 40.4669 -100.8636 74° East 487 560 37,700 484 Climbing Denver Center
Sat 04:35:45 PM 40.5078 -100.6717 75° East 495 570 38,200 484 Climbing Denver Center
Sat 04:36:47 PM 40.5422 -100.5075 74° East 494 568 38,700 387 Climbing Denver Center
Sat 04:37:49 PM 40.5833 -100.3161 75° East 492 566 39,000 145 Climbing Denver Center
Sat 04:38:51 PM 40.6181 -100.1489 75° East 496 571 39,000  Level Denver Center
Sat 04:39:53 PM 40.6589 -99.9508 74° East 503 579 39,000 -48 Level Denver Center
Sat 04:40:55 PM 40.6961 -99.7736 75° East 512 589 38,900 -532 Descending Denver Center
Sat 04:41:57 PM 40.7339 -99.5875 75° East 525 604 37,900 -976 Descending Denver Center
Sat 04:42:58 PM 40.7722 -99.3972 75° East 536 617 36,900 -976 Descending Denver Center
Sat 04:44:00 PM 40.8097 -99.2097 75° East 533 613 35,900 -919 Descending Denver Center
Sat 04:45:02 PM 40.8506 -99.0042 75° East 515 593 35,000 -581 Descending Denver Center
Sat 04:46:04 PM 40.8839 -98.8353 76° East 502 578 34,700 -677 Descending Denver Center
Sat 04:47:06 PM 40.9192 -98.6458 75° East 498 573 33,600 -1,016 Descending Denver Center
Sat 04:48:08 PM 40.9547 -98.4700 75° East 502 578 32,600 -1,016 Descending Denver Center
Sat 04:49:10 PM 40.9900 -98.2931 69° East 502 578 31,500 -1,636 Descending Denver Center
Sat 04:50:31 PM 41.0592 -98.0478 71° East 507 583 28,700 -2,043 Descending Minneapolis Center
Sat 04:51:31 PM 41.1036 -97.8750 70° East 502 578 26,700 -2,000 Descending Minneapolis Center
Sat 04:52:31 PM 41.1500 -97.7050 71° East 491 565 24,700 -2,000 Descending Minneapolis Center
Sat 04:53:31 PM 41.1917 -97.5453 71° East 481 554 22,700 -2,100 Descending Minneapolis Center
Sat 04:54:31 PM 41.2356 -97.3717 72° East 460 529 20,500 -2,150 Descending Minneapolis Center
Sat 04:55:31 PM 41.2742 -97.2169 70° East 447 514 18,400 -2,100 Descending Minneapolis Center
Sat 04:56:31 PM 41.3147 -97.0647 71° East 442 509 16,300 -1,200 Descending Minneapolis Center
Sat 04:57:31 PM 41.3531 -96.9122 91° East 437 503 16,000 -750 Descending Minneapolis Center
Sat 04:58:31 PM 41.3517 -96.7575 105° East 416 479 14,800 -1,850 Descending Minneapolis Center
Sat 04:59:31 PM 41.3244 -96.6208 104° East 399 459 12,300 -2,104 Descending Minneapolis Center
Sat 05:00:45 PM 41.2972 -96.4733 67° East 345 397 10,100 -2,050 Descending Minneapolis Center
Sat 05:01:31 PM 41.3292 -96.3753 67° East 332 382 8,200 -2,151 Descending Minneapolis Center
Sat 05:02:31 PM 41.3631 -96.2692 70° East 314 361 6,300 -1,950 Descending Minneapolis Center
Sat 05:03:31 PM 41.3908 -96.1656 83° East 308 354 4,300 -1,200 Descending Minneapolis Center
Sat 05:04:31 PM 41.3992 -96.0747 82° East 275 316 3,900 -650 Descending Minneapolis Center
Sat 05:05:31 PM 41.4072 -95.9978 82° East 252 290 3,000 -900 Descending Minneapolis Center

Login

Don't have an account? Register now (free) for customized features, flight alerts, and more!